Latest Weather Observations for Fortescue Dave Forrest

IDW60801

Issued at 9:33 pm WST Friday 16 April 2021 (issued every 10 minutes, with the page automatically refreshed every 10 minutes)

About weather observations | Map of weather stations | Latest weather observations for WA | Other Formats
Station Details ID: 505056 Name: FORTESCUE DAVE FORREST Lat: -22.29 Lon: 119.43 Height: 474.6 m
Data from the previous 72 hours. | See also: Recent months for locations in Western Australia
Date/Time
WST
Temp
°C
App
Temp
°C
Dew
Point
°C
Rel
Hum
%
Delta-T
°C
Wind Press
QNH
hPa
Press
MSL
hPa
Rain since
9am
mm
Dir  Spd
km/h
Gust
km/h
Spd
kts
Gust
kts
16/09:30pm 23.3 22.4 15.9 63 4.6 ESE 15 19 8 10 1020.2 1017.4 0.0
16/09:00pm 23.4 22.8 15.7 62 4.7 ESE 13 19 7 10 1020.2 1017.4 0.0
16/08:30pm 23.9 23.3 15.7 60 5.1 ESE 13 17 7 9 1020.2 1017.4 0.0
16/08:00pm 24.4 23.9 15.9 59 5.3 ESE 13 19 7 10 1019.8 1017.1 0.0
16/07:30pm 24.7 24.3 16.2 59 5.3 SE 13 19 7 10 1019.4 1016.7 0.0
16/07:00pm 25.0 24.8 15.6 56 5.8 SE 11 17 6 9 1019.1 1016.3 0.0
16/06:30pm 25.5 24.8 15.5 54 6.2 SE 13 20 7 11 1019.0 1016.2 0.0
16/06:00pm 26.0 24.8 15.1 51 6.7 SE 15 22 8 12 1018.6 1015.8 0.0
16/05:30pm 26.7 25.4 14.8 48 7.3 SE 15 22 8 12 1018.4 1015.6 0.0
16/05:00pm 27.4 26.1 14.8 46 7.7 SE 15 22 8 12 1018.0 1015.2 0.0
16/04:30pm 27.6 25.2 14.3 44 8.1 SE 20 28 11 15 1017.7 1015.0 0.0
16/04:00pm 27.9 25.5 14.5 44 8.2 SE 20 30 11 16 1017.6 1014.9 0.0
16/03:30pm 28.1 26.4 14.7 44 8.3 SE 17 28 9 15 1017.4 1014.6 0.0
16/03:00pm 27.7 25.8 14.3 43 8.2 ESE 17 28 9 15 1017.4 1014.6 0.0
16/02:30pm 27.4 25.1 14.1 44 8.1 SE 19 28 10 15 1017.4 1014.6 0.0
16/02:00pm 27.2 24.6 13.9 44 8.1 ESE 20 32 11 17 1017.5 1014.8 0.0
16/01:30pm 26.4 23.5 13.9 46 7.6 ESE 22 32 12 17 1017.8 1015.1 0.0
16/01:00pm 26.0 23.0 13.8 47 7.3 ESE 22 33 12 18 1018.3 1015.5 0.0
16/12:30pm 25.7 23.0 13.5 46 7.3 ESE 20 32 11 17 1018.8 1016.0 0.0
16/12:00pm 24.8 21.2 13.0 47 7.0 ESE 24 35 13 19 1019.3 1016.5 0.0
16/11:30am 24.3 20.7 13.2 50 6.6 ESE 24 33 13 18 1019.8 1017.1 0.0
16/11:00am 23.4 19.4 13.0 52 6.1 ESE 26 39 14 21 1020.4 1017.6 0.0
16/10:30am 22.8 18.0 13.0 54 5.8 ESE 30 39 16 21 1020.9 1018.1 0.0
16/10:00am 22.2 18.0 13.5 57 5.1 ESE 28 35 15 19 1021.2 1018.4 0.0
16/09:30am 21.4 16.7 13.1 59 4.9 ESE 30 39 16 21 1021.7 1019.0 0.0
16/09:00am 20.3 15.8 12.5 61 4.5 ESE 28 35 15 19 1021.6 1018.9 0.0
16/08:30am 19.7 14.5 12.7 64 4.0 ESE 32 41 17 22 1021.4 1018.7 0.0
16/08:00am 18.8 15.0 12.3 66 3.7 SE 24 35 13 19 1021.1 1018.3 0.0
16/07:30am 18.1 13.8 12.1 68 3.4 SE 26 39 14 21 1021.0 1018.2 0.0
16/07:00am 17.4 14.1 11.7 69 3.2 SE 20 28 11 15 1020.6 1017.8 0.0
16/06:30am 16.8 14.0 11.3 70 3.0 SE 17 28 9 15 1020.3 1017.5 0.0
16/06:00am 16.7 13.7 10.8 68 3.2 SE 17 24 9 13 1019.7 1017.0 0.0
16/05:30am 16.9 14.4 11.0 68 3.2 SE 15 20 8 11 1019.6 1016.9 0.0
16/05:00am 17.0 14.7 10.6 66 3.5 SE 13 19 7 10 1019.4 1016.7 0.0
16/04:30am 17.2 15.0 10.8 66 3.5 SE 13 17 7 9 1019.2 1016.4 0.0
16/04:00am 17.5 15.4 11.1 66 3.5 SE 13 20 7 11 1019.0 1016.2 0.0
16/03:30am 17.7 15.8 11.7 68 3.4 SE 13 19 7 10 1019.0 1016.2 0.0
16/03:00am 18.1 15.8 11.7 66 3.6 SE 15 22 8 12 1019.0 1016.2 0.0
16/02:30am 18.4 16.1 11.7 65 3.8 SE 15 22 8 12 1018.9 1016.1 0.0
16/02:00am 18.9 16.1 11.5 62 4.1 SE 17 24 9 13 1018.9 1016.1 0.0
16/01:30am 19.3 15.9 11.3 60 4.5 ESE 20 28 11 15 1018.6 1015.8 0.0
16/01:00am 19.7 16.9 11.5 59 4.6 SE 17 24 9 13 1018.9 1016.1 0.0
16/12:30am 20.1 17.4 11.6 58 4.8 ESE 17 24 9 13 1019.1 1016.3 0.0
16/12:00am 20.2 17.9 11.9 59 4.7 SE 15 22 8 12 1019.1 1016.3 0.0
 
Date/Time
WST
Temp
°C
App
Temp
°C
Dew
Point
°C
Rel
Hum
%
Delta-T
°C
Wind Press
QNH
hPa
Press
MSL
hPa
Rain since
9am
mm
Dir  Spd
km/h
Gust
km/h
Spd
kts
Gust
kts
15/11:30pm 20.7 18.4 11.9 57 5.0 SE 15 22 8 12 1019.3 1016.5 0.0
15/11:00pm 21.0 18.4 11.9 56 5.2 SE 17 24 9 13 1019.2 1016.4 0.0
15/10:30pm 21.4 18.8 12.0 55 5.4 SE 17 26 9 14 1019.2 1016.4 0.0
15/10:00pm 21.6 19.0 11.9 54 5.5 SE 17 22 9 12 1019.3 1016.5 0.0
15/09:30pm 21.8 19.6 12.1 54 5.6 SE 15 20 8 11 1019.3 1016.5 0.0
15/09:00pm 22.1 20.4 12.4 54 5.6 SE 13 19 7 10 1019.3 1016.5 0.0
15/08:30pm 22.0 20.9 13.1 57 5.2 SE 11 17 6 9 1019.2 1016.4 0.0
15/08:00pm 22.3 21.4 13.6 58 5.1 SSE 11 17 6 9 1019.0 1016.2 0.0
15/07:30pm 22.6 21.8 13.9 58 5.2 SSE 11 17 6 9 1018.6 1015.8 0.0
15/07:00pm 22.9 22.2 14.2 58 5.2 SSE 11 15 6 8 1018.3 1015.5 0.0
15/06:30pm 23.6 22.5 13.2 52 6.1 SE 11 15 6 8 1018.0 1015.2 0.0
15/06:00pm 24.2 23.0 12.8 49 6.7 SE 11 17 6 9 1017.6 1014.9 0.0
15/05:30pm 25.2 22.5 11.7 43 7.8 SE 17 22 9 12 1017.3 1014.5 0.0
15/05:00pm 25.7 22.5 11.8 42 8.1 SE 20 30 11 16 1017.1 1014.3 0.0
15/04:30pm 26.2 23.1 12.3 42 8.2 SE 20 32 11 17 1017.0 1014.2 0.0
15/04:00pm 26.1 22.3 12.5 42 8.0 SE 24 35 13 19 1017.0 1014.2 0.0
15/03:30pm 26.1 22.3 12.5 42 8.0 SE 24 35 13 19 1017.0 1014.2 0.0
15/03:00pm 26.2 22.8 12.6 43 8.0 SE 22 33 12 18 1017.1 1014.3 0.0
15/02:30pm 25.8 22.1 12.6 44 7.8 SE 24 33 13 18 1017.2 1014.4 0.0
15/02:00pm 25.8 22.1 12.6 44 7.8 SE 24 35 13 19 1017.5 1014.8 0.0
15/01:30pm 25.1 21.3 13.6 49 6.9 SE 26 37 14 20 1017.6 1014.9 0.0
15/01:00pm 24.7 20.8 13.3 49 6.8 SE 26 39 14 21 1018.1 1015.3 0.0
15/12:30pm 24.1 19.8 13.3 51 6.4 SE 28 37 15 20 1018.5 1015.7 0.0
15/12:00pm 23.5 19.1 12.8 51 6.3 SE 28 41 15 22 1018.9 1016.1 0.0
15/11:30am 23.0 18.2 12.9 53 5.9 SE 30 41 16 22 1019.3 1016.5 0.0
15/11:00am 22.9 18.9 13.1 54 5.8 SE 26 37 14 20 1019.8 1017.1 0.0
15/10:30am 22.3 18.0 13.1 56 5.4 SE 28 37 15 20 1020.0 1017.3 0.0
15/10:00am 21.7 17.1 13.6 60 4.8 SE 30 41 16 22 1020.3 1017.5 0.0
15/09:30am 20.9 15.9 12.3 58 4.9 SE 30 41 16 22 1020.4 1017.6 0.0
15/09:00am 20.4 15.6 12.9 62 4.3 SE 30 43 16 23 1020.6 1017.8 -
15/08:30am 20.0 16.6 13.7 67 3.7 SE 24 37 13 20 1020.4 1017.6 -
15/08:00am 19.5 15.5 13.0 66 3.7 SE 26 39 14 21 1020.3 1017.5 -
15/07:30am 18.7 15.4 12.7 68 3.4 SE 22 35 12 19 1019.7 1017.0 -
15/07:00am 18.4 15.6 13.3 72 2.9 SE 20 32 11 17 1019.5 1016.8 -
15/06:30am 18.0 15.9 13.7 76 2.5 SE 17 24 9 13 1019.3 1016.5 -
15/06:00am 18.0 - 13.7 76 2.5 - - - - - 1018.9 1016.1 -
15/01:30am 19.2 18.7 17.9 92 0.8 SE 17 26 9 14 1018.5 1015.7 29.6
15/01:00am 19.2 18.7 17.9 92 0.8 SE 17 24 9 13 1018.2 1015.4 29.6
15/12:47am 19.2 19.0 17.7 91 0.9 SE 15 24 8 13 1018.2 1015.4 29.6
15/12:30am 19.3 18.4 17.8 91 0.9 SE 19 26 10 14 1017.6 1014.9 29.6
15/12:00am 19.4 17.7 18.2 93 0.8 ESE 24 33 13 18 1017.4 1014.6 29.6
 
Date/Time
WST
Temp
°C
App
Temp
°C
Dew
Point
°C
Rel
Hum
%
Delta-T
°C
Wind Press
QNH
hPa
Press
MSL
hPa
Rain since
9am
mm
Dir  Spd
km/h
Gust
km/h
Spd
kts
Gust
kts
14/11:30pm 19.7 17.6 18.9 95 0.5 ESE 28 39 15 21 1017.8 1015.1 29.6
14/11:00pm 19.8 19.4 19.0 95 0.5 ESE 19 26 10 14 1019.4 1016.7 29.0
14/10:30pm 19.7 19.2 19.2 97 0.3 ESE 20 26 11 14 1019.7 1017.0 28.4
14/10:07pm 19.6 20.9 19.3 98 0.2 SE 11 15 6 8 1020.5 1017.7 27.6
14/10:00pm 19.6 20.9 19.3 98 0.2 SSE 11 15 6 8 1020.5 1017.7 27.2
14/09:45pm 19.7 21.4 19.4 98 0.2 S 9 13 5 7 1020.7 1017.9 26.0
14/09:30pm 19.7 21.8 19.4 98 0.2 S 7 11 4 6 1020.8 1018.0 24.8
14/09:27pm 19.7 22.0 19.4 98 0.2 S 6 11 3 6 1020.9 1018.1 24.6
14/09:00pm 19.6 21.8 19.1 97 0.3 S 6 13 3 7 1020.6 1017.8 21.8
14/08:58pm 19.6 21.6 19.1 97 0.3 S 7 17 4 9 1020.6 1017.8 21.6
14/08:30pm 20.0 19.8 19.3 96 0.5 SSW 19 30 10 16 1019.8 1017.1 12.8
14/08:25pm 20.4 20.7 19.6 95 0.5 S 17 26 9 14 1019.5 1016.8 10.0
14/08:20pm 20.5 20.8 19.5 94 0.6 S 17 24 9 13 1019.3 1016.5 9.4
14/08:05pm 20.6 21.3 19.6 94 0.6 S 15 22 8 12 1018.8 1016.0 8.4
14/08:00pm 20.6 20.9 19.6 94 0.6 SSE 17 28 9 15 1018.7 1015.9 8.4
14/07:59pm 20.6 20.9 19.6 94 0.6 SSE 17 28 9 15 1018.7 1015.9 8.4
14/07:55pm 20.5 20.4 19.5 94 0.6 SSE 19 28 10 15 1018.5 1015.7 8.2
14/07:38pm 20.6 20.4 19.8 95 0.5 SSE 20 28 11 15 1018.3 1015.5 6.8
14/07:30pm 20.5 19.8 19.5 94 0.6 SSE 22 30 12 16 1018.1 1015.3 5.8
14/07:28pm 20.6 19.9 19.6 94 0.6 SSE 22 30 12 16 1018.1 1015.3 5.4
14/07:12pm 22.2 24.1 19.7 86 1.6 SSE 9 19 5 10 1018.1 1015.3 0.2
14/07:00pm 22.9 23.3 18.9 78 2.6 SE 15 19 8 10 1017.5 1014.8 0.0
14/06:30pm 22.7 22.3 18.9 79 2.5 SE 19 26 10 14 1017.0 1014.2 0.0
14/06:00pm 22.7 23.7 19.5 82 2.1 SE 13 20 7 11 1016.9 1014.1 0.0
14/05:30pm 22.9 23.3 19.1 79 2.5 SE 15 22 8 12 1016.7 1013.9 0.0
14/05:00pm 24.1 23.4 18.7 72 3.5 SE 20 26 11 14 1016.4 1013.6 0.0
14/04:30pm 24.2 23.6 18.8 72 3.5 SE 20 30 11 16 1016.1 1013.3 0.0
14/04:00pm 24.2 23.6 18.8 72 3.5 SE 20 30 11 16 1016.1 1013.3 0.0
14/03:30pm 24.6 23.3 19.0 71 3.6 SE 24 33 13 18 1016.0 1013.2 0.0
14/03:00pm 24.1 23.6 19.0 73 3.3 SE 20 30 11 16 1016.1 1013.3 0.0
14/02:30pm 24.3 23.6 19.6 75 3.1 SE 22 33 12 18 1016.4 1013.6 0.0
14/02:00pm 24.2 23.7 19.9 77 2.8 SE 22 32 12 17 1016.3 1013.5 0.0
14/01:30pm 23.7 22.3 19.6 78 2.7 SSE 26 33 14 18 1016.6 1013.8 0.0
14/01:00pm 25.1 24.3 20.1 74 3.3 SE 24 33 13 18 1016.9 1014.1 0.0
14/12:30pm 24.4 24.3 19.9 76 3.0 SSE 20 28 11 15 1017.1 1014.3 0.0
14/12:00pm 25.2 25.5 19.6 71 3.7 SE 17 24 9 13 1017.4 1014.6 0.0
14/11:30am 24.4 24.2 19.7 75 3.1 ESE 20 26 11 14 1017.7 1015.0 0.0
14/11:00am 24.0 23.1 19.9 78 2.7 ESE 24 30 13 16 1018.1 1015.3 0.0
14/10:34am 24.0 23.4 19.7 77 2.8 ESE 22 30 12 16 1018.4 1015.6 0.0
14/10:30am 23.9 23.9 20.2 80 2.4 SE 20 28 11 15 1018.4 1015.6 0.0
14/10:00am 23.3 23.6 20.4 84 1.9 SE 19 26 10 14 1018.4 1015.6 0.0
14/09:30am 22.8 23.1 20.3 86 1.6 SE 19 26 10 14 1018.4 1015.6 0.0
14/09:00am 22.8 23.3 20.9 89 1.3 SE 19 28 10 15 1018.3 1015.5 60.6
14/08:30am 22.3 23.0 20.4 89 1.3 SE 17 24 9 13 1018.1 1015.3 60.6
14/08:00am 21.9 22.6 20.4 91 1.0 SE 17 26 9 14 1017.6 1014.9 60.6
14/07:30am 21.5 21.6 20.0 91 1.0 SE 19 26 10 14 1017.2 1014.4 60.6
14/07:00am 21.6 22.0 19.9 90 1.1 SE 17 24 9 13 1016.9 1014.1 60.6
14/06:30am 21.7 22.4 20.5 93 0.8 SE 17 26 9 14 1016.3 1013.5 60.6
14/06:00am 21.6 24.0 20.8 95 0.5 SE 9 15 5 8 1016.0 1013.2 60.6
14/05:30am 21.5 23.1 20.7 95 0.5 SE 13 19 7 10 1015.7 1012.9 60.6
14/05:00am 21.5 23.5 20.7 95 0.5 SE 11 17 6 9 1015.5 1012.7 60.6
14/04:30am 21.4 22.9 20.6 95 0.5 SE 13 19 7 10 1015.7 1012.9 60.6
14/04:10am 21.4 22.9 20.6 95 0.5 SSE 13 19 7 10 1015.8 1013.0 60.6
14/04:00am 21.3 23.1 20.3 94 0.7 SSE 11 17 6 9 1015.8 1013.0 60.6
14/03:30am 21.2 22.8 20.0 93 0.8 SSE 11 15 6 8 1015.8 1013.0 60.6
14/03:00am 21.3 22.7 19.6 90 1.1 SE 11 19 6 10 1015.8 1013.0 60.6
14/02:30am 21.5 23.4 19.8 90 1.1 SSE 9 11 5 6 1015.7 1012.9 60.6
14/02:00am 21.5 23.9 20.1 92 0.9 SSE 7 9 4 5 1015.7 1012.9 60.6
14/01:30am 21.5 24.1 20.5 94 0.7 S 7 13 4 7 1015.7 1012.9 60.6
14/01:00am 21.7 23.6 20.5 93 0.8 SSE 11 15 6 8 1015.8 1013.0 60.6
14/12:30am 22.0 24.5 21.0 94 0.7 SSE 9 17 5 9 1015.8 1013.0 60.6
14/12:00am 22.0 24.4 20.8 93 0.8 SSE 9 15 5 8 1016.2 1013.4 60.6
 
Date/Time
WST
Temp
°C
App
Temp
°C
Dew
Point
°C
Rel
Hum
%
Delta-T
°C
Wind Press
QNH
hPa
Press
MSL
hPa
Rain since
9am
mm
Dir  Spd
km/h
Gust
km/h
Spd
kts
Gust
kts
13/11:30pm 22.0 23.5 21.2 95 0.5 SE 15 22 8 12 1016.4 1013.6 60.4
13/11:00pm 22.2 24.8 21.2 94 0.7 SE 9 13 5 7 1016.5 1013.7 60.4
13/10:30pm 22.4 25.8 20.9 91 1.0 N 4 6 2 3 1016.9 1014.1 60.4
13/10:00pm 22.2 25.2 20.8 92 0.9 NNE 6 6 3 3 1017.1 1014.3 60.4

Other formats

Comma delimited format used in spreadsheet applications
http://www.bom.gov.au/fwo/IDW60801/IDW60801.99736.axf

JavaScript Object Notation format (JSON) in row-major order
http://www.bom.gov.au/fwo/IDW60801/IDW60801.99736.json

Data quality

Most of these data are generated automatically and are frequently updated. Quality checks on data are not normally performed. It is possible for incorrect values to appear. Refer to information at About Latest Weather Observations and please check the disclaimer before using these data.